Terminal Aerodrome Forecast
Issued by NWS Caribou, ME

Current Version | Previous Version | Text Only | Print | Product List | Glossary On
Versions: 1 2 3 4 5 6 7 8 9 10 11 12 13 14 15 16
000
FTUS41 KCAR 251738 CCB
TAFCAR
TAF COR
KCAR 251738Z 2518/2618 21008G14KT P6SM FEW040 SCT100
     FM260000 22007KT P6SM SKC
     FM260300 23007KT P6SM FEW100=

USA.gov is the U.S. government's official web portal to all federal, state and local government web resources and services.